createdAt,value
2023-01-18T00:01:19.562Z,54.13
2023-01-18T00:03:21.062Z,53.98
2023-01-18T00:05:25.481Z,54.24
2023-01-18T00:07:26.805Z,54.07
2023-01-18T00:09:28.148Z,54.06
2023-01-18T00:11:29.481Z,54.22
2023-01-18T00:13:30.799Z,53.93
2023-01-18T00:15:32.108Z,53.96
2023-01-18T00:17:33.451Z,53.57
2023-01-18T00:19:34.981Z,54.01
2023-01-18T00:21:36.330Z,53.52
2023-01-18T00:23:37.665Z,53.24
2023-01-18T00:25:38.956Z,53.71
2023-01-18T00:27:40.257Z,53.43
2023-01-18T00:29:41.555Z,53.40
2023-01-18T00:31:42.904Z,53.73
2023-01-18T00:33:44.463Z,53.74
2023-01-18T00:35:45.805Z,53.95
2023-01-18T00:37:47.102Z,53.68
2023-01-18T00:39:48.399Z,53.80
2023-01-18T00:42:08.284Z,53.99
2023-01-18T00:44:09.583Z,53.83
2023-01-18T00:46:10.971Z,54.33
2023-01-18T00:48:12.401Z,54.25
2023-01-18T00:50:13.833Z,54.91
2023-01-18T00:52:15.130Z,54.89
2023-01-18T00:54:16.421Z,54.84
2023-01-18T00:56:17.758Z,55.00
2023-01-18T00:58:19.298Z,54.94
2023-01-18T01:00:26.647Z,55.19
2023-01-18T01:02:27.998Z,55.32
2023-01-18T01:04:48.372Z,55.21
2023-01-18T01:06:49.720Z,55.37
2023-01-18T01:08:51.012Z,55.42
2023-01-18T01:10:52.352Z,55.17
2023-01-18T01:13:12.211Z,55.29
2023-01-18T01:15:32.018Z,55.55
2023-01-18T01:17:51.930Z,55.48
2023-01-18T01:20:11.814Z,55.38
2023-01-18T01:22:31.774Z,55.94
2023-01-18T01:24:51.748Z,55.78
2023-01-18T01:26:53.057Z,55.57
2023-01-18T01:28:54.349Z,55.53
2023-01-18T01:30:55.748Z,55.89
2023-01-18T01:32:57.473Z,55.65
2023-01-18T01:34:58.978Z,55.98
2023-01-18T01:37:00.270Z,55.68
2023-01-18T01:39:01.799Z,55.51
2023-01-18T01:41:03.149Z,55.24
2023-01-18T01:43:04.514Z,55.05
2023-01-18T01:45:06.973Z,55.05
2023-01-18T01:47:08.279Z,55.51
2023-01-18T01:49:09.624Z,55.30
2023-01-18T01:51:10.921Z,55.00
2023-01-18T01:53:12.257Z,55.69
2023-01-18T01:55:13.720Z,55.30
2023-01-18T01:57:15.026Z,55.08
2023-01-18T01:59:16.362Z,55.11
2023-01-18T02:01:17.826Z,55.60
2023-01-18T02:03:19.339Z,55.45
2023-01-18T02:05:20.620Z,55.22
2023-01-18T02:07:21.954Z,55.77
2023-01-18T02:09:23.376Z,55.74
2023-01-18T02:11:24.710Z,55.68
2023-01-18T02:13:26.044Z,56.09
2023-01-18T02:15:27.338Z,57.03
2023-01-18T02:17:30.917Z,57.17
2023-01-18T02:19:32.246Z,57.21
2023-01-18T02:21:33.551Z,57.18
2023-01-18T02:23:35.042Z,57.30
2023-01-18T02:25:36.356Z,57.62
2023-01-18T02:27:43.585Z,57.49
2023-01-18T02:29:45.001Z,57.74
2023-01-18T02:31:46.327Z,58.26
2023-01-18T02:33:47.689Z,58.03
2023-01-18T02:35:49.658Z,58.04
2023-01-18T02:37:51.015Z,58.57
2023-01-18T02:39:52.431Z,58.65
2023-01-18T02:42:12.269Z,57.75
2023-01-18T02:44:32.218Z,58.11
2023-01-18T02:46:36.521Z,57.75
2023-01-18T02:48:37.866Z,57.94
2023-01-18T02:50:39.306Z,57.85
2023-01-18T02:52:40.669Z,57.51
2023-01-18T02:54:41.963Z,57.82
2023-01-18T02:56:43.284Z,57.59
2023-01-18T02:58:44.590Z,57.49
2023-01-18T03:00:46.013Z,57.05
2023-01-18T03:02:47.521Z,57.60
2023-01-18T03:04:54.704Z,57.11
2023-01-18T03:06:57.327Z,56.75
2023-01-18T03:08:58.715Z,56.64
2023-01-18T03:11:00.234Z,56.73
2023-01-18T03:13:02.160Z,56.45
2023-01-18T03:15:05.071Z,55.91
2023-01-18T03:17:06.379Z,56.19
2023-01-18T03:19:26.215Z,56.39
2023-01-18T03:21:27.558Z,55.84
2023-01-18T03:23:37.995Z,56.27
2023-01-18T03:25:39.338Z,57.14
2023-01-18T03:27:59.586Z,57.04
2023-01-18T03:30:20.923Z,57.17
2023-01-18T03:32:40.796Z,57.26
2023-01-18T03:34:42.618Z,57.25
2023-01-18T03:36:44.015Z,57.80
2023-01-18T03:38:45.308Z,57.65
2023-01-18T03:40:46.652Z,56.70
2023-01-18T03:42:48.526Z,56.71
2023-01-18T03:44:49.837Z,56.87
2023-01-18T03:46:51.185Z,57.31
2023-01-18T03:48:52.646Z,56.96
2023-01-18T03:50:53.999Z,57.21
2023-01-18T03:52:55.595Z,57.26
2023-01-18T03:54:57.152Z,57.37
2023-01-18T03:56:58.483Z,56.91
2023-01-18T03:58:59.788Z,56.85
2023-01-18T04:01:04.208Z,56.93
2023-01-18T04:03:05.646Z,56.92
2023-01-18T04:05:06.995Z,56.44
2023-01-18T04:07:08.288Z,56.65
2023-01-18T04:09:09.584Z,56.36
2023-01-18T04:11:10.890Z,56.18
2023-01-18T04:13:12.183Z,56.45
2023-01-18T04:15:13.530Z,56.66
2023-01-18T04:17:14.850Z,56.22
2023-01-18T04:19:16.123Z,55.98
2023-01-18T04:21:17.474Z,56.29
2023-01-18T04:23:18.798Z,56.33
2023-01-18T04:25:20.105Z,56.40
2023-01-18T04:27:24.150Z,55.76
2023-01-18T04:29:25.606Z,55.73
2023-01-18T04:31:27.010Z,56.09
2023-01-18T04:33:28.423Z,56.07
2023-01-18T04:35:29.778Z,56.73
2023-01-18T04:37:34.161Z,56.48
2023-01-18T04:39:35.499Z,56.51
2023-01-18T04:41:36.794Z,56.65
2023-01-18T04:43:38.087Z,57.29
2023-01-18T04:45:39.641Z,57.03
2023-01-18T04:47:40.993Z,56.95
2023-01-18T04:49:42.302Z,57.28
2023-01-18T04:51:43.590Z,56.94
2023-01-18T04:53:44.905Z,57.52
2023-01-18T04:55:46.246Z,57.60
2023-01-18T04:57:47.830Z,57.46
2023-01-18T04:59:49.178Z,57.09
2023-01-18T05:01:50.473Z,57.96
2023-01-18T05:03:51.866Z,57.70
2023-01-18T05:05:53.215Z,58.18
2023-01-18T05:07:54.535Z,58.08
2023-01-18T05:09:56.905Z,57.62
2023-01-18T05:11:58.211Z,58.27
2023-01-18T05:13:59.535Z,58.14
2023-01-18T05:16:00.876Z,58.36
2023-01-18T05:18:02.531Z,58.26
2023-01-18T05:20:06.356Z,57.99
2023-01-18T05:22:07.751Z,57.89
2023-01-18T05:24:09.134Z,58.13
2023-01-18T05:26:14.479Z,57.80
2023-01-18T05:28:15.806Z,57.76
2023-01-18T05:30:17.102Z,57.52
2023-01-18T05:32:18.997Z,57.26
2023-01-18T05:34:20.325Z,57.07
2023-01-18T05:36:21.641Z,57.24
2023-01-18T05:38:23.062Z,56.86
2023-01-18T05:40:24.370Z,56.29
2023-01-18T05:42:25.664Z,56.61
2023-01-18T05:44:27.003Z,56.41
2023-01-18T05:46:28.331Z,54.73
2023-01-18T05:48:30.084Z,44.86
2023-01-18T05:50:31.392Z,43.83
2023-01-18T05:52:32.706Z,44.22
2023-01-18T05:54:34.270Z,43.89
2023-01-18T05:56:35.626Z,46.94
2023-01-18T05:58:37.291Z,45.21
2023-01-18T06:00:38.604Z,44.98
2023-01-18T06:02:39.906Z,44.90
2023-01-18T06:04:41.239Z,45.14
2023-01-18T06:06:42.574Z,45.88
2023-01-18T06:08:43.975Z,45.63
2023-01-18T06:10:45.322Z,46.05
2023-01-18T06:12:46.752Z,46.33
2023-01-18T06:14:48.082Z,47.06
2023-01-18T06:16:49.383Z,47.13
2023-01-18T06:18:50.718Z,47.15
2023-01-18T06:20:52.069Z,47.72
2023-01-18T06:22:53.375Z,47.22
2023-01-18T06:24:55.219Z,47.13
2023-01-18T06:26:57.637Z,46.96
2023-01-18T06:28:58.966Z,47.25
2023-01-18T06:31:00.500Z,47.56
2023-01-18T06:33:06.673Z,47.60
2023-01-18T06:35:07.997Z,47.75
2023-01-18T06:37:09.302Z,47.93
2023-01-18T06:39:10.641Z,48.23
2023-01-18T06:41:11.938Z,48.35
2023-01-18T06:43:14.353Z,48.91
2023-01-18T06:45:18.172Z,48.79
2023-01-18T06:47:20.790Z,48.94
2023-01-18T06:49:22.089Z,49.22
2023-01-18T06:51:26.339Z,49.66
2023-01-18T06:53:27.698Z,49.75
2023-01-18T06:55:29.039Z,49.56
2023-01-18T06:57:30.387Z,49.99
2023-01-18T06:59:31.679Z,49.98
2023-01-18T07:01:33.222Z,50.33
2023-01-18T07:03:34.638Z,50.42
2023-01-18T07:05:35.977Z,50.59
2023-01-18T07:07:37.326Z,50.51
2023-01-18T07:09:38.614Z,50.65
2023-01-18T07:11:43.331Z,51.09
2023-01-18T07:13:44.653Z,50.84
2023-01-18T07:15:45.996Z,50.89
2023-01-18T07:17:47.352Z,51.15
2023-01-18T07:19:48.704Z,51.31
2023-01-18T07:21:50.275Z,51.19
2023-01-18T07:23:52.167Z,51.03
2023-01-18T07:25:53.668Z,51.13
2023-01-18T07:27:55.742Z,51.17
2023-01-18T07:29:57.058Z,51.09
2023-01-18T07:31:58.591Z,50.82
2023-01-18T07:33:59.994Z,50.79
2023-01-18T07:36:01.574Z,50.18
2023-01-18T07:38:02.912Z,50.34
2023-01-18T07:40:04.249Z,50.04
2023-01-18T07:42:05.649Z,49.78
2023-01-18T07:44:07.136Z,49.67
2023-01-18T07:46:08.503Z,49.94
2023-01-18T07:48:10.624Z,49.33
2023-01-18T07:50:12.354Z,49.38
2023-01-18T07:52:13.698Z,49.22
2023-01-18T07:54:17.026Z,49.38
2023-01-18T07:56:18.494Z,49.13
2023-01-18T07:58:19.955Z,49.13
2023-01-18T08:00:21.859Z,49.40
2023-01-18T08:02:23.173Z,49.35
2023-01-18T08:04:24.982Z,49.59
2023-01-18T08:06:26.440Z,49.31
2023-01-18T08:08:28.709Z,49.45
2023-01-18T08:10:30.054Z,49.41
2023-01-18T08:12:31.392Z,49.99
2023-01-18T08:14:32.704Z,49.67
2023-01-18T08:16:34.189Z,50.07
2023-01-18T08:18:35.539Z,50.08
2023-01-18T08:20:36.840Z,50.28
2023-01-18T08:22:38.137Z,50.30
2023-01-18T08:24:39.492Z,50.18
2023-01-18T08:26:40.851Z,50.52
2023-01-18T08:28:42.184Z,50.42
2023-01-18T08:30:43.552Z,50.61
2023-01-18T08:32:44.944Z,50.95
2023-01-18T08:34:46.273Z,50.81
2023-01-18T08:36:48.034Z,50.71
2023-01-18T08:38:49.502Z,51.20
2023-01-18T08:40:50.858Z,50.97
2023-01-18T08:42:52.146Z,50.73
2023-01-18T08:44:53.924Z,50.87
2023-01-18T08:46:55.230Z,51.12
2023-01-18T08:48:56.555Z,51.04
2023-01-18T08:50:57.882Z,51.00
2023-01-18T08:53:00.336Z,51.33
2023-01-18T08:55:01.886Z,51.29
2023-01-18T08:57:04.503Z,51.33
2023-01-18T08:59:05.908Z,50.88
2023-01-18T09:01:07.278Z,50.79
2023-01-18T09:03:08.790Z,50.54
2023-01-18T09:05:10.128Z,50.29
2023-01-18T09:07:11.423Z,50.19
2023-01-18T09:09:12.767Z,49.88
2023-01-18T09:11:14.187Z,49.66
2023-01-18T09:13:15.513Z,49.46
2023-01-18T09:15:18.186Z,49.40
2023-01-18T09:17:21.198Z,49.54
2023-01-18T09:19:22.501Z,49.72
2023-01-18T09:21:23.869Z,49.82
2023-01-18T09:23:25.175Z,49.62
2023-01-18T09:25:26.510Z,49.61
2023-01-18T09:27:27.816Z,49.37
2023-01-18T09:29:29.122Z,49.26
2023-01-18T09:31:30.795Z,49.56
2023-01-18T09:33:37.662Z,49.66
2023-01-18T09:35:39.462Z,50.15
2023-01-18T09:37:40.811Z,50.09
2023-01-18T09:39:51.382Z,50.13
2023-01-18T09:41:53.749Z,50.08
2023-01-18T09:43:55.043Z,50.22
2023-01-18T09:45:56.621Z,50.14
2023-01-18T09:47:57.961Z,50.37
2023-01-18T09:49:59.259Z,50.43
2023-01-18T09:52:00.567Z,50.75
2023-01-18T09:54:02.308Z,50.40
2023-01-18T09:56:03.663Z,50.46
2023-01-18T09:58:04.980Z,50.60
2023-01-18T10:00:06.298Z,51.01
2023-01-18T10:02:07.826Z,51.06
2023-01-18T10:04:09.206Z,50.79
2023-01-18T10:06:10.517Z,51.02
2023-01-18T10:08:13.525Z,50.92
2023-01-18T10:10:15.378Z,50.99
2023-01-18T10:12:16.695Z,51.13
2023-01-18T10:14:18.283Z,51.01
2023-01-18T10:16:20.336Z,50.98
2023-01-18T10:18:21.720Z,50.72
2023-01-18T10:20:23.178Z,50.76
2023-01-18T10:22:24.716Z,50.44
2023-01-18T10:24:26.419Z,50.33
2023-01-18T10:26:27.722Z,50.38
2023-01-18T10:28:29.032Z,50.23
2023-01-18T10:30:30.479Z,50.04
2023-01-18T10:32:31.791Z,50.09
2023-01-18T10:34:33.194Z,49.80
2023-01-18T10:36:34.546Z,49.87
2023-01-18T10:38:36.283Z,49.24
2023-01-18T10:40:37.674Z,49.73
2023-01-18T10:42:39.724Z,49.45
2023-01-18T10:44:41.320Z,49.47
2023-01-18T10:46:42.651Z,49.73
2023-01-18T10:48:45.178Z,49.63
2023-01-18T10:50:46.523Z,49.72
2023-01-18T10:52:47.852Z,49.64
2023-01-18T10:54:49.166Z,49.43
2023-01-18T10:56:50.574Z,49.66
2023-01-18T10:58:52.083Z,49.92
2023-01-18T11:00:53.555Z,49.75
2023-01-18T11:02:54.931Z,49.84
2023-01-18T11:04:56.884Z,50.17
2023-01-18T11:06:58.191Z,50.13
2023-01-18T11:08:59.528Z,50.16
2023-01-18T11:11:00.885Z,50.28
2023-01-18T11:13:02.229Z,50.16
2023-01-18T11:15:03.527Z,50.61
2023-01-18T11:17:11.364Z,50.31
2023-01-18T11:19:12.727Z,50.54
2023-01-18T11:21:14.036Z,50.34
2023-01-18T11:23:16.124Z,50.62
2023-01-18T11:25:17.432Z,50.58
2023-01-18T11:27:18.723Z,50.80
2023-01-18T11:29:20.071Z,50.83
2023-01-18T11:31:22.362Z,50.44
2023-01-18T11:33:23.890Z,50.67
2023-01-18T11:35:25.190Z,50.42
2023-01-18T11:37:26.518Z,50.94
2023-01-18T11:39:27.910Z,50.76
2023-01-18T11:41:29.201Z,50.94
2023-01-18T11:43:30.527Z,50.64
2023-01-18T11:45:31.996Z,50.60
2023-01-18T11:47:33.406Z,50.20
2023-01-18T11:49:37.098Z,50.66
2023-01-18T11:51:39.070Z,49.87
2023-01-18T11:53:41.525Z,50.02
2023-01-18T11:55:43.804Z,50.24
2023-01-18T11:57:45.089Z,50.00
2023-01-18T11:59:46.439Z,49.83
2023-01-18T12:01:47.728Z,49.54
2023-01-18T12:03:49.104Z,49.44
2023-01-18T12:05:53.032Z,49.70
2023-01-18T12:07:54.334Z,49.56
2023-01-18T12:09:55.638Z,49.73
2023-01-18T12:12:01.450Z,49.41
2023-01-18T12:14:12.899Z,49.41
2023-01-18T12:16:14.380Z,49.88
2023-01-18T12:18:16.034Z,49.44
2023-01-18T12:20:20.044Z,49.70
2023-01-18T12:22:22.242Z,49.60
2023-01-18T12:24:23.557Z,49.73
2023-01-18T12:26:24.876Z,49.85
2023-01-18T12:28:26.346Z,49.85
2023-01-18T12:30:27.975Z,49.53
2023-01-18T12:32:29.699Z,50.15
2023-01-18T12:34:31.374Z,49.98
2023-01-18T12:36:32.716Z,50.09
2023-01-18T12:38:34.028Z,50.28
2023-01-18T12:40:35.388Z,50.01
2023-01-18T12:42:36.726Z,50.09
2023-01-18T12:44:38.039Z,50.22
2023-01-18T12:46:39.994Z,50.12
2023-01-18T12:48:41.302Z,50.20
2023-01-18T12:50:43.634Z,50.35
2023-01-18T12:52:44.996Z,50.31
2023-01-18T12:54:46.327Z,50.45
2023-01-18T12:56:47.681Z,50.54
2023-01-18T12:58:49.022Z,50.41
2023-01-18T13:00:50.350Z,50.53
2023-01-18T13:02:51.820Z,50.53
2023-01-18T13:04:53.184Z,50.59
2023-01-18T13:06:54.621Z,50.28
2023-01-18T13:08:55.951Z,50.50
2023-01-18T13:10:57.245Z,50.40
2023-01-18T13:12:58.567Z,50.27
2023-01-18T13:15:02.249Z,50.15
2023-01-18T13:17:03.553Z,50.08
2023-01-18T13:19:05.625Z,50.09
2023-01-18T13:21:06.933Z,50.15
2023-01-18T13:23:09.698Z,50.26
2023-01-18T13:25:10.989Z,50.27
2023-01-18T13:27:12.320Z,50.62
2023-01-18T13:29:13.973Z,50.66
2023-01-18T13:31:15.371Z,50.71
2023-01-18T13:33:17.069Z,50.39
2023-01-18T13:35:21.295Z,50.39
2023-01-18T13:37:23.542Z,50.28
2023-01-18T13:39:24.866Z,50.04
2023-01-18T13:41:26.199Z,49.88
2023-01-18T13:43:27.546Z,49.84
2023-01-18T13:45:28.930Z,49.63
2023-01-18T13:47:30.389Z,49.51
2023-01-18T13:49:37.653Z,49.55
2023-01-18T13:51:39.610Z,49.48
2023-01-18T13:53:40.942Z,49.38
2023-01-18T13:55:42.230Z,49.29
2023-01-18T13:57:43.526Z,49.21
2023-01-18T13:59:44.861Z,49.04
2023-01-18T14:01:48.725Z,49.32
2023-01-18T14:03:51.167Z,49.34
2023-01-18T14:05:52.613Z,49.24
2023-01-18T14:07:54.026Z,49.12
2023-01-18T14:09:55.414Z,48.94
2023-01-18T14:11:56.951Z,49.41
2023-01-18T14:13:59.107Z,49.20
2023-01-18T14:16:00.501Z,49.23
2023-01-18T14:18:01.842Z,49.39
2023-01-18T14:20:03.205Z,49.46
2023-01-18T14:22:05.398Z,49.48
2023-01-18T14:24:06.736Z,49.73
2023-01-18T14:26:08.053Z,49.56
2023-01-18T14:28:09.364Z,49.88
2023-01-18T14:30:10.695Z,49.62
2023-01-18T14:32:14.910Z,49.89
2023-01-18T14:34:16.211Z,49.92
2023-01-18T14:36:17.568Z,49.87
2023-01-18T14:38:19.143Z,49.83
2023-01-18T14:40:20.506Z,49.97
2023-01-18T14:42:21.849Z,50.07
2023-01-18T14:44:23.155Z,50.12
2023-01-18T14:46:24.583Z,50.14
2023-01-18T14:48:26.380Z,50.25
2023-01-18T14:50:27.781Z,50.31
2023-01-18T14:52:29.142Z,50.32
2023-01-18T14:54:30.546Z,49.85
2023-01-18T14:56:34.964Z,49.90
2023-01-18T14:58:36.295Z,49.86
2023-01-18T15:00:37.646Z,49.86
2023-01-18T15:02:39.146Z,49.78
2023-01-18T15:04:45.785Z,49.78
2023-01-18T15:06:47.094Z,49.45
2023-01-18T15:08:49.929Z,49.28
2023-01-18T15:10:51.302Z,49.32
2023-01-18T15:12:52.693Z,49.15
2023-01-18T15:14:55.542Z,48.68
2023-01-18T15:16:56.876Z,49.08
2023-01-18T15:19:02.206Z,48.94
2023-01-18T15:21:03.540Z,49.00
2023-01-18T15:23:05.304Z,48.84
2023-01-18T15:25:06.593Z,48.59
2023-01-18T15:27:08.255Z,48.56
2023-01-18T15:29:09.707Z,48.90
2023-01-18T15:31:11.422Z,48.94
2023-01-18T15:33:12.772Z,48.86
2023-01-18T15:35:14.538Z,48.72
2023-01-18T15:37:15.871Z,48.81
2023-01-18T15:39:17.300Z,49.09
2023-01-18T15:41:18.645Z,49.61
2023-01-18T15:43:19.978Z,49.50
2023-01-18T15:45:21.271Z,49.40
2023-01-18T15:47:25.690Z,49.36
2023-01-18T15:49:26.990Z,49.49
2023-01-18T15:51:47.120Z,49.59
2023-01-18T15:53:52.385Z,49.63
2023-01-18T15:55:53.761Z,49.42
2023-01-18T15:57:55.054Z,49.64
2023-01-18T15:59:58.717Z,49.70
2023-01-18T16:02:00.251Z,50.04
2023-01-18T16:04:04.067Z,49.84
2023-01-18T16:06:05.426Z,49.79
2023-01-18T16:08:15.832Z,49.83
2023-01-18T16:10:17.558Z,50.04
2023-01-18T16:12:18.928Z,50.02
2023-01-18T16:14:20.339Z,49.80
2023-01-18T16:16:21.940Z,49.68
2023-01-18T16:18:23.290Z,49.58
2023-01-18T16:20:24.620Z,49.52
2023-01-18T16:22:25.918Z,49.40
2023-01-18T16:24:27.577Z,49.44
2023-01-18T16:26:29.090Z,49.59
2023-01-18T16:28:30.458Z,48.60
2023-01-18T16:30:33.384Z,48.17
2023-01-18T16:32:34.790Z,48.38
2023-01-18T16:34:36.119Z,48.00
2023-01-18T16:36:42.230Z,47.95
2023-01-18T16:38:44.066Z,48.15
2023-01-18T16:40:45.367Z,47.79
2023-01-18T16:42:46.696Z,47.98
2023-01-18T16:44:48.045Z,48.23
2023-01-18T16:46:49.396Z,48.36
2023-01-18T16:48:56.817Z,48.30
2023-01-18T16:51:01.218Z,48.59
2023-01-18T16:53:06.538Z,49.05
2023-01-18T16:55:07.848Z,49.53
2023-01-18T16:57:09.327Z,49.18
2023-01-18T16:59:10.852Z,49.60
2023-01-18T17:01:12.477Z,49.62
2023-01-18T17:03:13.830Z,50.42
2023-01-18T17:05:15.807Z,50.64
2023-01-18T17:07:17.319Z,50.33
2023-01-18T17:09:18.643Z,49.40
2023-01-18T17:11:20.011Z,49.50
2023-01-18T17:13:22.196Z,48.48
2023-01-18T17:15:23.601Z,48.59
2023-01-18T17:17:24.938Z,49.56
2023-01-18T17:19:26.272Z,49.16
2023-01-18T17:21:30.308Z,49.37
2023-01-18T17:23:31.642Z,50.21
2023-01-18T17:25:32.978Z,50.63
2023-01-18T17:27:35.070Z,51.02
2023-01-18T17:29:36.438Z,51.08
2023-01-18T17:31:48.086Z,50.80
2023-01-18T17:33:53.255Z,49.90
2023-01-18T17:35:54.625Z,49.46
2023-01-18T17:38:01.140Z,49.74
2023-01-18T17:40:17.163Z,49.52
2023-01-18T17:42:30.297Z,49.32
2023-01-18T17:44:36.865Z,49.32
2023-01-18T17:46:41.387Z,49.68
2023-01-18T17:48:43.103Z,48.81
2023-01-18T17:50:44.401Z,49.53
2023-01-18T17:52:45.819Z,49.02
2023-01-18T17:54:47.182Z,48.01
2023-01-18T17:56:48.492Z,49.58
2023-01-18T17:58:49.923Z,49.98
2023-01-18T18:00:51.875Z,50.58
2023-01-18T18:02:53.629Z,50.53
2023-01-18T18:04:54.976Z,50.96
2023-01-18T18:06:58.704Z,51.54
2023-01-18T18:09:00.130Z,50.69
2023-01-18T18:11:04.539Z,51.10
2023-01-18T18:13:05.903Z,50.97
2023-01-18T18:15:07.278Z,50.97
2023-01-18T18:17:08.587Z,50.56
2023-01-18T18:19:10.483Z,50.80
2023-01-18T18:21:12.007Z,50.39
2023-01-18T18:23:13.596Z,50.57
2023-01-18T18:25:14.929Z,50.67
2023-01-18T18:27:16.889Z,51.18
2023-01-18T18:29:18.395Z,50.77
2023-01-18T18:31:20.823Z,50.66
2023-01-18T18:33:22.929Z,50.56
2023-01-18T18:35:26.036Z,50.30
2023-01-18T18:37:27.875Z,50.14
2023-01-18T18:39:29.182Z,50.50
2023-01-18T18:41:30.474Z,50.36
2023-01-18T18:43:31.870Z,50.34
2023-01-18T18:45:36.243Z,50.34
2023-01-18T18:47:38.878Z,49.89
2023-01-18T18:49:40.305Z,49.81
2023-01-18T18:51:41.638Z,49.80
2023-01-18T18:53:43.082Z,50.12
2023-01-18T18:55:44.590Z,50.16
2023-01-18T18:57:45.882Z,50.19
2023-01-18T18:59:47.178Z,49.96
2023-01-18T19:01:51.776Z,50.52
2023-01-18T19:03:53.295Z,50.35
2023-01-18T19:05:54.611Z,50.66
2023-01-18T19:07:56.027Z,50.38
2023-01-18T19:09:57.331Z,50.20
2023-01-18T19:11:58.624Z,50.43
2023-01-18T19:14:00.123Z,50.44
2023-01-18T19:16:01.465Z,50.45
2023-01-18T19:18:02.818Z,50.35
2023-01-18T19:20:04.143Z,50.18
2023-01-18T19:22:05.447Z,50.42
2023-01-18T19:24:06.813Z,50.50
2023-01-18T19:26:08.150Z,50.38
2023-01-18T19:28:09.443Z,50.27
2023-01-18T19:30:18.980Z,50.10
2023-01-18T19:32:20.415Z,49.79
2023-01-18T19:34:21.963Z,49.58
2023-01-18T19:36:29.101Z,49.13
2023-01-18T19:38:30.435Z,48.87
2023-01-18T19:40:31.769Z,48.96
2023-01-18T19:42:33.058Z,49.20
2023-01-18T19:44:34.485Z,48.68
2023-01-18T19:46:35.977Z,49.85
2023-01-18T19:48:39.202Z,48.73
2023-01-18T19:50:40.534Z,49.27
2023-01-18T19:52:41.862Z,50.39
2023-01-18T19:54:46.195Z,49.61
2023-01-18T19:56:47.554Z,49.44
2023-01-18T19:58:50.003Z,49.18
2023-01-18T20:00:51.387Z,49.98
2023-01-18T20:02:53.344Z,50.39
2023-01-18T20:04:57.732Z,48.94
2023-01-18T20:06:59.162Z,49.50
2023-01-18T20:09:00.495Z,49.01
2023-01-18T20:11:02.227Z,49.75
2023-01-18T20:13:03.602Z,49.83
2023-01-18T20:15:06.156Z,50.00
2023-01-18T20:17:07.506Z,50.07
2023-01-18T20:19:08.800Z,50.40
2023-01-18T20:21:14.152Z,50.63
2023-01-18T20:23:15.483Z,51.84
2023-01-18T20:25:17.179Z,50.75
2023-01-18T20:27:18.612Z,50.20
2023-01-18T20:29:20.542Z,49.98
2023-01-18T20:31:21.950Z,50.09
2023-01-18T20:33:23.575Z,50.27
2023-01-18T20:35:25.055Z,50.64
2023-01-18T20:37:26.457Z,50.91
2023-01-18T20:39:27.794Z,51.42
2023-01-18T20:41:29.083Z,50.28
2023-01-18T20:43:30.458Z,50.11
2023-01-18T20:45:31.938Z,50.56
2023-01-18T20:47:33.328Z,50.79
2023-01-18T20:49:38.849Z,51.18
2023-01-18T20:51:41.651Z,50.97
2023-01-18T20:53:45.890Z,50.98
2023-01-18T20:55:47.245Z,51.06
2023-01-18T20:57:52.041Z,50.42
2023-01-18T20:59:53.689Z,50.27
2023-01-18T21:01:55.261Z,50.76
2023-01-18T21:03:56.741Z,50.54
2023-01-18T21:05:58.115Z,51.19
2023-01-18T21:08:02.480Z,51.16
2023-01-18T21:10:03.971Z,50.86
2023-01-18T21:12:05.304Z,51.04
2023-01-18T21:14:06.665Z,52.04
2023-01-18T21:16:08.042Z,50.98
2023-01-18T21:18:09.365Z,49.01
2023-01-18T21:20:10.700Z,48.39
2023-01-18T21:22:12.091Z,48.45
2023-01-18T21:24:13.418Z,48.70
2023-01-18T21:26:14.780Z,49.94
2023-01-18T21:28:18.982Z,50.35
2023-01-18T21:30:20.338Z,50.37
2023-01-18T21:32:23.075Z,51.11
2023-01-18T21:34:24.375Z,51.40
2023-01-18T21:36:25.711Z,51.31
2023-01-18T21:38:27.082Z,51.48
2023-01-18T21:40:28.421Z,51.68
2023-01-18T21:42:48.442Z,51.88
2023-01-18T21:45:08.435Z,52.02
2023-01-18T21:47:09.763Z,50.30
2023-01-18T21:49:42.877Z,41.39
2023-01-18T21:52:07.410Z,40.36
2023-01-18T21:54:17.602Z,39.93
2023-01-18T21:56:18.930Z,39.78
2023-01-18T21:58:39.246Z,43.00
2023-01-18T22:00:40.589Z,42.72
2023-01-18T22:02:41.967Z,44.11
2023-01-18T22:05:03.526Z,43.85
2023-01-18T22:07:04.874Z,44.63
2023-01-18T22:09:06.168Z,44.67
2023-01-18T22:11:07.471Z,45.04
2023-01-18T22:13:08.810Z,45.33
2023-01-18T22:15:10.151Z,45.78
2023-01-18T22:17:13.214Z,45.96
2023-01-18T22:19:14.515Z,45.89
2023-01-18T22:21:15.844Z,46.38
2023-01-18T22:23:17.147Z,47.17
2023-01-18T22:25:18.460Z,46.89
2023-01-18T22:27:19.823Z,47.22
2023-01-18T22:29:21.142Z,47.43
2023-01-18T22:31:22.475Z,47.41
2023-01-18T22:33:23.815Z,47.53
2023-01-18T22:35:25.116Z,48.24
2023-01-18T22:37:27.719Z,47.96
2023-01-18T22:39:29.060Z,48.16
2023-01-18T22:41:30.385Z,48.09
2023-01-18T22:43:31.742Z,48.54
2023-01-18T22:45:33.038Z,49.01
2023-01-18T22:47:34.371Z,49.31
2023-01-18T22:49:35.720Z,49.30
2023-01-18T22:51:37.053Z,49.61
2023-01-18T22:53:38.352Z,49.64
2023-01-18T22:55:39.903Z,49.98
2023-01-18T22:57:41.259Z,49.75
2023-01-18T22:59:42.601Z,49.75
2023-01-18T23:01:43.935Z,50.39
2023-01-18T23:03:45.413Z,50.61
2023-01-18T23:05:46.739Z,51.02
2023-01-18T23:07:48.103Z,51.12
2023-01-18T23:09:51.345Z,51.35
2023-01-18T23:11:52.765Z,51.64
2023-01-18T23:14:12.718Z,51.33
2023-01-18T23:16:32.855Z,52.20
2023-01-18T23:18:34.278Z,51.85
2023-01-18T23:20:35.622Z,52.04
2023-01-18T23:22:36.928Z,52.26
2023-01-18T23:24:38.230Z,52.44
2023-01-18T23:26:39.571Z,52.42
2023-01-18T23:28:43.797Z,52.53
2023-01-18T23:30:45.118Z,52.72
2023-01-18T23:32:46.467Z,52.83
2023-01-18T23:34:47.822Z,53.05
2023-01-18T23:36:49.207Z,53.22
2023-01-18T23:39:09.481Z,53.31
2023-01-18T23:41:29.363Z,53.54
2023-01-18T23:43:49.201Z,53.36
2023-01-18T23:46:09.173Z,53.67
2023-01-18T23:48:29.446Z,53.43
2023-01-18T23:50:49.248Z,53.54
2023-01-18T23:53:09.110Z,52.82
2023-01-18T23:55:10.469Z,52.84
2023-01-18T23:57:11.768Z,52.86
2023-01-18T23:59:13.860Z,52.60
